sensor_id;sensor_type;location;lat;lon;timestamp;P1;durP1;ratioP1;P2;durP2;ratioP2
2972;SDS011;1496;51.404;7.232;2022-10-19T00:00:25;16.10;;;9.07;;
2972;SDS011;1496;51.404;7.232;2022-10-19T00:02:50;18.10;;;8.07;;
2972;SDS011;1496;51.404;7.232;2022-10-19T00:05:16;26.10;;;9.40;;
2972;SDS011;1496;51.404;7.232;2022-10-19T00:07:42;19.27;;;7.87;;
2972;SDS011;1496;51.404;7.232;2022-10-19T00:10:07;29.57;;;7.53;;
2972;SDS011;1496;51.404;7.232;2022-10-19T00:12:33;20.37;;;7.70;;
2972;SDS011;1496;51.404;7.232;2022-10-19T00:14:59;21.43;;;6.83;;
2972;SDS011;1496;51.404;7.232;2022-10-19T00:17:25;19.77;;;7.37;;
2972;SDS011;1496;51.404;7.232;2022-10-19T00:19:50;14.60;;;5.57;;
2972;SDS011;1496;51.404;7.232;2022-10-19T00:22:16;16.10;;;6.50;;
2972;SDS011;1496;51.404;7.232;2022-10-19T00:24:41;14.40;;;6.10;;
2972;SDS011;1496;51.404;7.232;2022-10-19T00:27:08;15.97;;;6.00;;
2972;SDS011;1496;51.404;7.232;2022-10-19T00:29:33;20.37;;;7.07;;
2972;SDS011;1496;51.404;7.232;2022-10-19T00:31:59;20.23;;;5.30;;
2972;SDS011;1496;51.404;7.232;2022-10-19T00:34:25;24.63;;;5.73;;
2972;SDS011;1496;51.404;7.232;2022-10-19T00:36:50;20.23;;;4.90;;
2972;SDS011;1496;51.404;7.232;2022-10-19T00:39:16;29.20;;;7.13;;
2972;SDS011;1496;51.404;7.232;2022-10-19T00:41:43;28.37;;;6.30;;
2972;SDS011;1496;51.404;7.232;2022-10-19T00:46:37;21.63;;;4.80;;
2972;SDS011;1496;51.404;7.232;2022-10-19T00:51:52;17.03;;;5.10;;
2972;SDS011;1496;51.404;7.232;2022-10-19T00:54:19;16.27;;;4.80;;
2972;SDS011;1496;51.404;7.232;2022-10-19T00:56:46;20.93;;;5.90;;
2972;SDS011;1496;51.404;7.232;2022-10-19T00:59:19;15.87;;;4.50;;
2972;SDS011;1496;51.404;7.232;2022-10-19T01:01:46;17.10;;;5.77;;
2972;SDS011;1496;51.404;7.232;2022-10-19T01:04:13;10.43;;;4.73;;
2972;SDS011;1496;51.404;7.232;2022-10-19T01:06:39;12.67;;;5.03;;
2972;SDS011;1496;51.404;7.232;2022-10-19T01:09:05;12.23;;;4.60;;
2972;SDS011;1496;51.404;7.232;2022-10-19T01:14:25;12.00;;;4.90;;
2972;SDS011;1496;51.404;7.232;2022-10-19T01:17:10;17.63;;;5.20;;
2972;SDS011;1496;51.404;7.232;2022-10-19T01:31:00;13.17;;;5.43;;
2972;SDS011;1496;51.404;7.232;2022-10-19T01:36:22;13.80;;;4.27;;
2972;SDS011;1496;51.404;7.232;2022-10-19T01:39:01;8.40;;;4.10;;
2972;SDS011;1496;51.404;7.232;2022-10-19T01:47:47;15.37;;;4.63;;
2972;SDS011;1496;51.404;7.232;2022-10-19T01:50:23;10.13;;;3.93;;
2972;SDS011;1496;51.404;7.232;2022-10-19T01:52:55;30.43;;;5.90;;
2972;SDS011;1496;51.404;7.232;2022-10-19T01:55:23;32.67;;;5.90;;
2972;SDS011;1496;51.404;7.232;2022-10-19T01:57:51;41.37;;;6.30;;
2972;SDS011;1496;51.404;7.232;2022-10-19T02:00:21;36.27;;;6.10;;
2972;SDS011;1496;51.404;7.232;2022-10-19T02:02:48;51.50;;;5.23;;
2972;SDS011;1496;51.404;7.232;2022-10-19T02:05:16;34.27;;;4.77;;
2972;SDS011;1496;51.404;7.232;2022-10-19T02:07:45;49.33;;;6.10;;
2972;SDS011;1496;51.404;7.232;2022-10-19T02:10:18;25.77;;;4.40;;
2972;SDS011;1496;51.404;7.232;2022-10-19T02:12:44;23.10;;;4.10;;
2972;SDS011;1496;51.404;7.232;2022-10-19T02:15:13;30.27;;;5.43;;
2972;SDS011;1496;51.404;7.232;2022-10-19T02:17:47;34.33;;;4.90;;
2972;SDS011;1496;51.404;7.232;2022-10-19T02:20:16;22.50;;;4.30;;
2972;SDS011;1496;51.404;7.232;2022-10-19T02:22:42;27.87;;;6.27;;
2972;SDS011;1496;51.404;7.232;2022-10-19T02:25:08;41.73;;;5.80;;
2972;SDS011;1496;51.404;7.232;2022-10-19T02:27:35;31.90;;;6.30;;
2972;SDS011;1496;51.404;7.232;2022-10-19T02:30:06;72.03;;;7.43;;
2972;SDS011;1496;51.404;7.232;2022-10-19T02:32:36;54.63;;;6.33;;
2972;SDS011;1496;51.404;7.232;2022-10-19T02:35:02;28.60;;;5.00;;
2972;SDS011;1496;51.404;7.232;2022-10-19T02:37:27;28.13;;;5.40;;
2972;SDS011;1496;51.404;7.232;2022-10-19T02:39:53;34.63;;;5.03;;
2972;SDS011;1496;51.404;7.232;2022-10-19T02:42:21;31.10;;;4.67;;
2972;SDS011;1496;51.404;7.232;2022-10-19T02:44:57;29.40;;;4.47;;
2972;SDS011;1496;51.404;7.232;2022-10-19T02:47:32;37.33;;;5.00;;
2972;SDS011;1496;51.404;7.232;2022-10-19T02:50:04;21.67;;;4.70;;
2972;SDS011;1496;51.404;7.232;2022-10-19T02:52:31;24.97;;;4.63;;
2972;SDS011;1496;51.404;7.232;2022-10-19T02:54:57;24.73;;;4.67;;
2972;SDS011;1496;51.404;7.232;2022-10-19T02:57:23;36.20;;;5.80;;
2972;SDS011;1496;51.404;7.232;2022-10-19T02:59:50;48.30;;;5.40;;
2972;SDS011;1496;51.404;7.232;2022-10-19T03:02:17;36.07;;;5.20;;
2972;SDS011;1496;51.404;7.232;2022-10-19T03:04:43;29.80;;;4.70;;
2972;SDS011;1496;51.404;7.232;2022-10-19T03:07:13;26.03;;;4.90;;
2972;SDS011;1496;51.404;7.232;2022-10-19T03:09:41;59.57;;;6.97;;
2972;SDS011;1496;51.404;7.232;2022-10-19T03:12:07;36.93;;;5.57;;
2972;SDS011;1496;51.404;7.232;2022-10-19T03:14:32;45.33;;;7.03;;
2972;SDS011;1496;51.404;7.232;2022-10-19T03:16:58;61.37;;;7.53;;
2972;SDS011;1496;51.404;7.232;2022-10-19T03:19:24;45.93;;;6.33;;
2972;SDS011;1496;51.404;7.232;2022-10-19T03:21:49;55.00;;;6.70;;
2972;SDS011;1496;51.404;7.232;2022-10-19T03:24:15;44.03;;;6.93;;
2972;SDS011;1496;51.404;7.232;2022-10-19T03:26:41;86.77;;;9.00;;
2972;SDS011;1496;51.404;7.232;2022-10-19T03:29:06;88.13;;;8.57;;
2972;SDS011;1496;51.404;7.232;2022-10-19T03:31:32;129.20;;;10.73;;
2972;SDS011;1496;51.404;7.232;2022-10-19T03:33:58;59.30;;;7.00;;
2972;SDS011;1496;51.404;7.232;2022-10-19T03:36:25;59.07;;;7.53;;
2972;SDS011;1496;51.404;7.232;2022-10-19T03:38:53;82.30;;;8.50;;
2972;SDS011;1496;51.404;7.232;2022-10-19T03:41:21;54.77;;;7.90;;
2972;SDS011;1496;51.404;7.232;2022-10-19T03:43:48;108.70;;;9.80;;
2972;SDS011;1496;51.404;7.232;2022-10-19T03:46:13;118.63;;;9.83;;
2972;SDS011;1496;51.404;7.232;2022-10-19T03:48:39;132.37;;;10.13;;
2972;SDS011;1496;51.404;7.232;2022-10-19T03:51:09;65.23;;;9.00;;
2972;SDS011;1496;51.404;7.232;2022-10-19T03:53:37;52.07;;;7.93;;
2972;SDS011;1496;51.404;7.232;2022-10-19T03:56:04;96.10;;;10.73;;
2972;SDS011;1496;51.404;7.232;2022-10-19T03:58:33;58.17;;;10.40;;
2972;SDS011;1496;51.404;7.232;2022-10-19T04:01:01;76.30;;;11.37;;
2972;SDS011;1496;51.404;7.232;2022-10-19T04:03:31;27.90;;;7.83;;
2972;SDS011;1496;51.404;7.232;2022-10-19T04:06:01;37.57;;;8.70;;
2972;SDS011;1496;51.404;7.232;2022-10-19T04:08:31;36.57;;;9.50;;
2972;SDS011;1496;51.404;7.232;2022-10-19T04:11:01;141.13;;;18.53;;
2972;SDS011;1496;51.404;7.232;2022-10-19T04:13:29;94.53;;;12.20;;
2972;SDS011;1496;51.404;7.232;2022-10-19T04:15:55;17.60;;;7.40;;
2972;SDS011;1496;51.404;7.232;2022-10-19T04:18:20;43.53;;;10.13;;
2972;SDS011;1496;51.404;7.232;2022-10-19T04:20:46;21.50;;;8.13;;
2972;SDS011;1496;51.404;7.232;2022-10-19T04:23:11;24.40;;;8.43;;
2972;SDS011;1496;51.404;7.232;2022-10-19T04:25:37;13.50;;;8.30;;
2972;SDS011;1496;51.404;7.232;2022-10-19T04:28:03;15.33;;;7.70;;
2972;SDS011;1496;51.404;7.232;2022-10-19T04:30:28;15.70;;;9.20;;
2972;SDS011;1496;51.404;7.232;2022-10-19T04:32:54;20.03;;;8.63;;
2972;SDS011;1496;51.404;7.232;2022-10-19T04:35:20;12.50;;;8.23;;
2972;SDS011;1496;51.404;7.232;2022-10-19T04:37:45;32.03;;;7.93;;
2972;SDS011;1496;51.404;7.232;2022-10-19T04:40:11;15.17;;;8.00;;
2972;SDS011;1496;51.404;7.232;2022-10-19T04:42:37;12.60;;;6.83;;
2972;SDS011;1496;51.404;7.232;2022-10-19T04:45:02;12.00;;;6.10;;
2972;SDS011;1496;51.404;7.232;2022-10-19T04:47:28;12.87;;;5.93;;
2972;SDS011;1496;51.404;7.232;2022-10-19T04:49:54;10.43;;;6.27;;
2972;SDS011;1496;51.404;7.232;2022-10-19T04:52:20;13.07;;;6.63;;
2972;SDS011;1496;51.404;7.232;2022-10-19T04:54:45;14.60;;;6.43;;
2972;SDS011;1496;51.404;7.232;2022-10-19T04:57:11;12.17;;;5.60;;
2972;SDS011;1496;51.404;7.232;2022-10-19T04:59:36;17.53;;;6.50;;
2972;SDS011;1496;51.404;7.232;2022-10-19T05:02:02;14.57;;;5.97;;
2972;SDS011;1496;51.404;7.232;2022-10-19T05:04:28;13.60;;;6.20;;
2972;SDS011;1496;51.404;7.232;2022-10-19T05:06:53;11.43;;;5.97;;
2972;SDS011;1496;51.404;7.232;2022-10-19T05:09:19;13.10;;;6.73;;
2972;SDS011;1496;51.404;7.232;2022-10-19T05:11:47;15.30;;;8.00;;
2972;SDS011;1496;51.404;7.232;2022-10-19T05:14:14;15.60;;;9.27;;
2972;SDS011;1496;51.404;7.232;2022-10-19T05:16:39;12.90;;;7.63;;
2972;SDS011;1496;51.404;7.232;2022-10-19T05:19:05;13.50;;;8.63;;
2972;SDS011;1496;51.404;7.232;2022-10-19T05:21:31;12.30;;;6.87;;
2972;SDS011;1496;51.404;7.232;2022-10-19T05:23:57;11.00;;;6.80;;
2972;SDS011;1496;51.404;7.232;2022-10-19T05:26:23;14.03;;;7.00;;
2972;SDS011;1496;51.404;7.232;2022-10-19T05:28:51;16.57;;;7.80;;
2972;SDS011;1496;51.404;7.232;2022-10-19T05:31:24;15.10;;;7.20;;
2972;SDS011;1496;51.404;7.232;2022-10-19T05:33:51;11.40;;;7.83;;
2972;SDS011;1496;51.404;7.232;2022-10-19T05:36:18;14.33;;;7.50;;
2972;SDS011;1496;51.404;7.232;2022-10-19T05:38:46;12.93;;;8.07;;
2972;SDS011;1496;51.404;7.232;2022-10-19T05:41:13;13.50;;;7.37;;
2972;SDS011;1496;51.404;7.232;2022-10-19T05:43:40;11.90;;;7.63;;
2972;SDS011;1496;51.404;7.232;2022-10-19T05:46:07;26.80;;;7.10;;
2972;SDS011;1496;51.404;7.232;2022-10-19T05:48:34;27.00;;;8.70;;
2972;SDS011;1496;51.404;7.232;2022-10-19T05:51:00;17.37;;;8.30;;
2972;SDS011;1496;51.404;7.232;2022-10-19T05:53:29;16.87;;;8.33;;
2972;SDS011;1496;51.404;7.232;2022-10-19T05:55:55;32.07;;;8.57;;
2972;SDS011;1496;51.404;7.232;2022-10-19T05:58:21;12.57;;;7.27;;
2972;SDS011;1496;51.404;7.232;2022-10-19T06:00:54;40.03;;;9.40;;
2972;SDS011;1496;51.404;7.232;2022-10-19T06:03:21;11.37;;;7.30;;
2972;SDS011;1496;51.404;7.232;2022-10-19T06:05:47;19.73;;;8.60;;
2972;SDS011;1496;51.404;7.232;2022-10-19T06:08:14;11.40;;;8.60;;
2972;SDS011;1496;51.404;7.232;2022-10-19T06:10:40;9.23;;;7.10;;
2972;SDS011;1496;51.404;7.232;2022-10-19T06:13:06;20.30;;;8.43;;
2972;SDS011;1496;51.404;7.232;2022-10-19T06:15:33;14.13;;;7.43;;
2972;SDS011;1496;51.404;7.232;2022-10-19T06:18:02;20.70;;;7.97;;
2972;SDS011;1496;51.404;7.232;2022-10-19T06:20:28;21.30;;;8.00;;
2972;SDS011;1496;51.404;7.232;2022-10-19T06:22:54;12.37;;;7.87;;
2972;SDS011;1496;51.404;7.232;2022-10-19T06:25:20;12.03;;;8.73;;
2972;SDS011;1496;51.404;7.232;2022-10-19T06:27:46;16.07;;;7.57;;
2972;SDS011;1496;51.404;7.232;2022-10-19T06:30:12;12.57;;;8.60;;
2972;SDS011;1496;51.404;7.232;2022-10-19T06:32:37;15.93;;;7.97;;
2972;SDS011;1496;51.404;7.232;2022-10-19T06:35:03;24.23;;;8.83;;
2972;SDS011;1496;51.404;7.232;2022-10-19T06:37:29;14.60;;;7.50;;
2972;SDS011;1496;51.404;7.232;2022-10-19T06:39:55;26.37;;;7.73;;
2972;SDS011;1496;51.404;7.232;2022-10-19T06:42:20;25.03;;;8.50;;
2972;SDS011;1496;51.404;7.232;2022-10-19T06:44:46;33.13;;;9.30;;
2972;SDS011;1496;51.404;7.232;2022-10-19T06:47:11;20.10;;;7.00;;
2972;SDS011;1496;51.404;7.232;2022-10-19T06:49:37;17.30;;;7.00;;
2972;SDS011;1496;51.404;7.232;2022-10-19T06:52:03;23.10;;;7.47;;
2972;SDS011;1496;51.404;7.232;2022-10-19T06:54:30;15.83;;;7.87;;
2972;SDS011;1496;51.404;7.232;2022-10-19T06:56:55;51.87;;;9.67;;
2972;SDS011;1496;51.404;7.232;2022-10-19T06:59:21;38.57;;;8.53;;
2972;SDS011;1496;51.404;7.232;2022-10-19T07:01:46;40.90;;;8.70;;
2972;SDS011;1496;51.404;7.232;2022-10-19T07:04:12;63.93;;;11.93;;
2972;SDS011;1496;51.404;7.232;2022-10-19T07:06:38;72.70;;;10.87;;
2972;SDS011;1496;51.404;7.232;2022-10-19T07:09:04;14.23;;;8.53;;
2972;SDS011;1496;51.404;7.232;2022-10-19T07:11:29;17.73;;;8.37;;
2972;SDS011;1496;51.404;7.232;2022-10-19T07:13:55;16.80;;;8.50;;
2972;SDS011;1496;51.404;7.232;2022-10-19T07:16:21;26.70;;;9.23;;
2972;SDS011;1496;51.404;7.232;2022-10-19T07:18:47;38.03;;;9.97;;
2972;SDS011;1496;51.404;7.232;2022-10-19T07:21:17;46.97;;;9.37;;
2972;SDS011;1496;51.404;7.232;2022-10-19T07:23:44;19.40;;;7.87;;
2972;SDS011;1496;51.404;7.232;2022-10-19T07:26:15;11.40;;;7.97;;
2972;SDS011;1496;51.404;7.232;2022-10-19T07:28:47;14.33;;;7.93;;
2972;SDS011;1496;51.404;7.232;2022-10-19T07:31:14;22.37;;;8.20;;
2972;SDS011;1496;51.404;7.232;2022-10-19T07:33:44;10.20;;;6.77;;
2972;SDS011;1496;51.404;7.232;2022-10-19T07:36:10;11.93;;;8.30;;
2972;SDS011;1496;51.404;7.232;2022-10-19T07:38:37;13.40;;;7.90;;
2972;SDS011;1496;51.404;7.232;2022-10-19T07:43:31;9.13;;;7.20;;
2972;SDS011;1496;51.404;7.232;2022-10-19T07:46:03;11.03;;;8.23;;
2972;SDS011;1496;51.404;7.232;2022-10-19T07:48:30;12.37;;;8.50;;
2972;SDS011;1496;51.404;7.232;2022-10-19T07:50:56;11.80;;;9.33;;
2972;SDS011;1496;51.404;7.232;2022-10-19T07:53:21;13.60;;;9.20;;
2972;SDS011;1496;51.404;7.232;2022-10-19T07:55:47;23.33;;;9.70;;
2972;SDS011;1496;51.404;7.232;2022-10-19T07:58:13;20.43;;;10.70;;
2972;SDS011;1496;51.404;7.232;2022-10-19T08:00:39;27.97;;;12.00;;
2972;SDS011;1496;51.404;7.232;2022-10-19T08:03:04;18.33;;;12.33;;
2972;SDS011;1496;51.404;7.232;2022-10-19T08:05:33;13.00;;;10.33;;
2972;SDS011;1496;51.404;7.232;2022-10-19T08:07:59;13.87;;;10.83;;
2972;SDS011;1496;51.404;7.232;2022-10-19T08:10:25;15.10;;;11.40;;
2972;SDS011;1496;51.404;7.232;2022-10-19T08:12:50;14.20;;;11.17;;
2972;SDS011;1496;51.404;7.232;2022-10-19T08:15:16;15.63;;;11.43;;
2972;SDS011;1496;51.404;7.232;2022-10-19T08:17:42;14.80;;;11.10;;
2972;SDS011;1496;51.404;7.232;2022-10-19T08:20:09;17.27;;;12.20;;
2972;SDS011;1496;51.404;7.232;2022-10-19T08:22:35;17.40;;;12.10;;
2972;SDS011;1496;51.404;7.232;2022-10-19T08:25:00;16.73;;;12.67;;
2972;SDS011;1496;51.404;7.232;2022-10-19T08:27:26;19.37;;;13.00;;
2972;SDS011;1496;51.404;7.232;2022-10-19T08:29:53;14.57;;;11.37;;
2972;SDS011;1496;51.404;7.232;2022-10-19T08:32:18;15.93;;;12.10;;
2972;SDS011;1496;51.404;7.232;2022-10-19T08:34:44;17.13;;;11.60;;
2972;SDS011;1496;51.404;7.232;2022-10-19T08:37:10;20.27;;;13.17;;
2972;SDS011;1496;51.404;7.232;2022-10-19T08:39:36;23.40;;;13.00;;
2972;SDS011;1496;51.404;7.232;2022-10-19T08:42:13;21.87;;;13.30;;
2972;SDS011;1496;51.404;7.232;2022-10-19T08:44:48;21.87;;;12.40;;
2972;SDS011;1496;51.404;7.232;2022-10-19T08:50:06;14.40;;;11.70;;
2972;SDS011;1496;51.404;7.232;2022-10-19T08:52:56;18.73;;;12.80;;
2972;SDS011;1496;51.404;7.232;2022-10-19T08:55:31;20.53;;;13.70;;
2972;SDS011;1496;51.404;7.232;2022-10-19T09:00:54;14.90;;;11.33;;
2972;SDS011;1496;51.404;7.232;2022-10-19T09:09:16;14.40;;;10.93;;
2972;SDS011;1496;51.404;7.232;2022-10-19T09:11:45;27.47;;;14.37;;
2972;SDS011;1496;51.404;7.232;2022-10-19T09:17:11;22.53;;;12.70;;
2972;SDS011;1496;51.404;7.232;2022-10-19T09:19:39;15.80;;;9.80;;
2972;SDS011;1496;51.404;7.232;2022-10-19T09:22:06;11.07;;;7.23;;
2972;SDS011;1496;51.404;7.232;2022-10-19T09:24:43;12.30;;;5.97;;
2972;SDS011;1496;51.404;7.232;2022-10-19T09:27:19;13.10;;;5.20;;
2972;SDS011;1496;51.404;7.232;2022-10-19T09:29:50;8.80;;;3.80;;
2972;SDS011;1496;51.404;7.232;2022-10-19T09:32:30;11.10;;;4.00;;
2972;SDS011;1496;51.404;7.232;2022-10-19T09:35:02;7.83;;;2.90;;
2972;SDS011;1496;51.404;7.232;2022-10-19T09:37:30;5.47;;;3.07;;
2972;SDS011;1496;51.404;7.232;2022-10-19T09:39:58;6.03;;;2.90;;
2972;SDS011;1496;51.404;7.232;2022-10-19T09:42:28;13.30;;;3.03;;
2972;SDS011;1496;51.404;7.232;2022-10-19T09:44:57;9.63;;;3.33;;
2972;SDS011;1496;51.404;7.232;2022-10-19T09:50:08;9.53;;;3.00;;
2972;SDS011;1496;51.404;7.232;2022-10-19T09:52:38;10.00;;;3.73;;
2972;SDS011;1496;51.404;7.232;2022-10-19T09:57:47;12.93;;;3.20;;
2972;SDS011;1496;51.404;7.232;2022-10-19T10:00:19;13.87;;;3.07;;
2972;SDS011;1496;51.404;7.232;2022-10-19T10:02:50;13.53;;;2.73;;
2972;SDS011;1496;51.404;7.232;2022-10-19T10:05:17;16.80;;;3.87;;
2972;SDS011;1496;51.404;7.232;2022-10-19T10:07:46;24.90;;;2.97;;
2972;SDS011;1496;51.404;7.232;2022-10-19T10:10:19;24.13;;;2.57;;
2972;SDS011;1496;51.404;7.232;2022-10-19T10:12:48;25.53;;;2.53;;
2972;SDS011;1496;51.404;7.232;2022-10-19T10:15:17;31.37;;;2.60;;
2972;SDS011;1496;51.404;7.232;2022-10-19T10:17:46;30.33;;;2.30;;
2972;SDS011;1496;51.404;7.232;2022-10-19T10:20:17;25.33;;;2.43;;
2972;SDS011;1496;51.404;7.232;2022-10-19T10:22:52;27.93;;;3.53;;
2972;SDS011;1496;51.404;7.232;2022-10-19T10:25:22;26.63;;;2.73;;
2972;SDS011;1496;51.404;7.232;2022-10-19T10:27:54;25.13;;;2.83;;
2972;SDS011;1496;51.404;7.232;2022-10-19T10:30:22;23.03;;;2.40;;
2972;SDS011;1496;51.404;7.232;2022-10-19T10:32:49;22.30;;;2.20;;
2972;SDS011;1496;51.404;7.232;2022-10-19T10:35:28;24.03;;;2.73;;
2972;SDS011;1496;51.404;7.232;2022-10-19T10:38:06;23.33;;;2.90;;
2972;SDS011;1496;51.404;7.232;2022-10-19T10:40:50;19.50;;;2.90;;
2972;SDS011;1496;51.404;7.232;2022-10-19T10:43:28;16.63;;;2.40;;
2972;SDS011;1496;51.404;7.232;2022-10-19T10:45:59;20.13;;;3.37;;
2972;SDS011;1496;51.404;7.232;2022-10-19T10:48:36;18.00;;;2.83;;
2972;SDS011;1496;51.404;7.232;2022-10-19T10:51:10;16.53;;;2.60;;
2972;SDS011;1496;51.404;7.232;2022-10-19T10:54:08;13.13;;;2.90;;
2972;SDS011;1496;51.404;7.232;2022-10-19T11:02:55;9.47;;;3.20;;
2972;SDS011;1496;51.404;7.232;2022-10-19T11:05:33;5.57;;;2.53;;
2972;SDS011;1496;51.404;7.232;2022-10-19T11:08:49;8.40;;;2.40;;
2972;SDS011;1496;51.404;7.232;2022-10-19T11:11:28;4.47;;;2.30;;
2972;SDS011;1496;51.404;7.232;2022-10-19T11:14:09;8.67;;;2.90;;
2972;SDS011;1496;51.404;7.232;2022-10-19T11:16:41;6.73;;;2.80;;
2972;SDS011;1496;51.404;7.232;2022-10-19T11:30:38;7.20;;;2.87;;
2972;SDS011;1496;51.404;7.232;2022-10-19T11:33:29;6.87;;;2.87;;
2972;SDS011;1496;51.404;7.232;2022-10-19T11:36:16;8.40;;;2.83;;
2972;SDS011;1496;51.404;7.232;2022-10-19T11:41:59;4.97;;;2.17;;
2972;SDS011;1496;51.404;7.232;2022-10-19T11:50:54;9.90;;;2.70;;
2972;SDS011;1496;51.404;7.232;2022-10-19T11:56:26;6.90;;;2.70;;
2972;SDS011;1496;51.404;7.232;2022-10-19T12:04:33;3.03;;;2.13;;
2972;SDS011;1496;51.404;7.232;2022-10-19T12:07:39;7.93;;;2.03;;
2972;SDS011;1496;51.404;7.232;2022-10-19T12:10:17;8.10;;;2.57;;
2972;SDS011;1496;51.404;7.232;2022-10-19T12:12:56;5.67;;;2.00;;
2972;SDS011;1496;51.404;7.232;2022-10-19T12:18:22;3.33;;;1.77;;
2972;SDS011;1496;51.404;7.232;2022-10-19T12:20:49;6.43;;;2.37;;
2972;SDS011;1496;51.404;7.232;2022-10-19T12:23:23;3.00;;;1.63;;
2972;SDS011;1496;51.404;7.232;2022-10-19T12:25:50;6.37;;;2.67;;
2972;SDS011;1496;51.404;7.232;2022-10-19T12:28:20;13.80;;;2.10;;
2972;SDS011;1496;51.404;7.232;2022-10-19T12:30:51;5.63;;;2.50;;
2972;SDS011;1496;51.404;7.232;2022-10-19T12:33:20;5.80;;;2.17;;
2972;SDS011;1496;51.404;7.232;2022-10-19T12:35:59;3.83;;;1.70;;
2972;SDS011;1496;51.404;7.232;2022-10-19T12:46:51;4.93;;;2.03;;
2972;SDS011;1496;51.404;7.232;2022-10-19T12:51:55;9.07;;;2.27;;
2972;SDS011;1496;51.404;7.232;2022-10-19T12:54:23;4.10;;;1.47;;
2972;SDS011;1496;51.404;7.232;2022-10-19T12:56:51;9.53;;;1.87;;
2972;SDS011;1496;51.404;7.232;2022-10-19T12:59:29;5.70;;;1.93;;
2972;SDS011;1496;51.404;7.232;2022-10-19T13:01:57;10.40;;;2.20;;
2972;SDS011;1496;51.404;7.232;2022-10-19T13:04:25;5.50;;;1.80;;
2972;SDS011;1496;51.404;7.232;2022-10-19T13:09:34;2.33;;;1.40;;
2972;SDS011;1496;51.404;7.232;2022-10-19T13:27:43;11.50;;;2.80;;
2972;SDS011;1496;51.404;7.232;2022-10-19T13:57:22;5.40;;;2.10;;
2972;SDS011;1496;51.404;7.232;2022-10-19T14:00:24;4.80;;;1.90;;
2972;SDS011;1496;51.404;7.232;2022-10-19T14:03:15;16.00;;;2.40;;
2972;SDS011;1496;51.404;7.232;2022-10-19T14:05:58;10.97;;;2.07;;
2972;SDS011;1496;51.404;7.232;2022-10-19T14:13:44;6.13;;;2.73;;
2972;SDS011;1496;51.404;7.232;2022-10-19T14:16:17;8.73;;;2.27;;
2972;SDS011;1496;51.404;7.232;2022-10-19T14:18:50;4.30;;;2.33;;
2972;SDS011;1496;51.404;7.232;2022-10-19T14:21:20;8.20;;;2.30;;
2972;SDS011;1496;51.404;7.232;2022-10-19T14:23:57;3.70;;;1.70;;
2972;SDS011;1496;51.404;7.232;2022-10-19T14:26:24;4.83;;;1.47;;
2972;SDS011;1496;51.404;7.232;2022-10-19T14:28:55;5.90;;;2.30;;
2972;SDS011;1496;51.404;7.232;2022-10-19T14:31:29;3.10;;;1.77;;
2972;SDS011;1496;51.404;7.232;2022-10-19T14:34:00;7.00;;;2.00;;
2972;SDS011;1496;51.404;7.232;2022-10-19T14:36:30;7.27;;;1.90;;
2972;SDS011;1496;51.404;7.232;2022-10-19T14:39:00;12.33;;;2.47;;
2972;SDS011;1496;51.404;7.232;2022-10-19T14:43:51;8.53;;;2.37;;
2972;SDS011;1496;51.404;7.232;2022-10-19T14:46:18;5.30;;;1.80;;
2972;SDS011;1496;51.404;7.232;2022-10-19T14:48:45;6.50;;;2.50;;
2972;SDS011;1496;51.404;7.232;2022-10-19T14:54:02;4.30;;;2.23;;
2972;SDS011;1496;51.404;7.232;2022-10-19T15:01:52;6.37;;;2.23;;
2972;SDS011;1496;51.404;7.232;2022-10-19T15:04:21;7.33;;;2.07;;
2972;SDS011;1496;51.404;7.232;2022-10-19T15:06:52;7.53;;;2.80;;
2972;SDS011;1496;51.404;7.232;2022-10-19T15:09:23;4.40;;;2.10;;
2972;SDS011;1496;51.404;7.232;2022-10-19T15:15:05;4.27;;;2.07;;
2972;SDS011;1496;51.404;7.232;2022-10-19T15:17:55;8.57;;;2.17;;
2972;SDS011;1496;51.404;7.232;2022-10-19T15:20:37;8.00;;;2.63;;
2972;SDS011;1496;51.404;7.232;2022-10-19T15:28:50;7.80;;;2.47;;
2972;SDS011;1496;51.404;7.232;2022-10-19T15:33:51;7.60;;;2.17;;
2972;SDS011;1496;51.404;7.232;2022-10-19T15:36:22;5.50;;;2.00;;
2972;SDS011;1496;51.404;7.232;2022-10-19T15:39:04;3.40;;;2.30;;
2972;SDS011;1496;51.404;7.232;2022-10-19T15:41:38;5.17;;;2.30;;
2972;SDS011;1496;51.404;7.232;2022-10-19T15:44:05;3.33;;;2.00;;
2972;SDS011;1496;51.404;7.232;2022-10-19T15:52:16;4.97;;;1.93;;
2972;SDS011;1496;51.404;7.232;2022-10-19T15:54:47;3.20;;;1.77;;
2972;SDS011;1496;51.404;7.232;2022-10-19T15:57:27;3.40;;;1.53;;
2972;SDS011;1496;51.404;7.232;2022-10-19T15:59:59;3.40;;;1.50;;
2972;SDS011;1496;51.404;7.232;2022-10-19T16:02:29;5.23;;;1.60;;
2972;SDS011;1496;51.404;7.232;2022-10-19T16:04:54;5.07;;;2.07;;
2972;SDS011;1496;51.404;7.232;2022-10-19T16:07:27;6.43;;;1.70;;
2972;SDS011;1496;51.404;7.232;2022-10-19T16:09:55;6.87;;;2.00;;
2972;SDS011;1496;51.404;7.232;2022-10-19T16:12:21;6.13;;;2.80;;
2972;SDS011;1496;51.404;7.232;2022-10-19T16:14:48;2.30;;;1.53;;
2972;SDS011;1496;51.404;7.232;2022-10-19T16:17:14;3.60;;;1.47;;
2972;SDS011;1496;51.404;7.232;2022-10-19T16:19:40;3.33;;;1.70;;
2972;SDS011;1496;51.404;7.232;2022-10-19T16:22:07;5.90;;;1.70;;
2972;SDS011;1496;51.404;7.232;2022-10-19T16:24:32;7.10;;;2.20;;
2972;SDS011;1496;51.404;7.232;2022-10-19T16:26:58;3.93;;;1.80;;
2972;SDS011;1496;51.404;7.232;2022-10-19T16:29:24;3.80;;;1.40;;
2972;SDS011;1496;51.404;7.232;2022-10-19T16:31:49;2.57;;;1.90;;
2972;SDS011;1496;51.404;7.232;2022-10-19T16:34:16;5.03;;;2.53;;
2972;SDS011;1496;51.404;7.232;2022-10-19T16:36:42;4.20;;;1.80;;
2972;SDS011;1496;51.404;7.232;2022-10-19T16:39:07;3.50;;;2.23;;
2972;SDS011;1496;51.404;7.232;2022-10-19T16:41:33;3.70;;;2.10;;
2972;SDS011;1496;51.404;7.232;2022-10-19T16:43:59;2.67;;;1.83;;
2972;SDS011;1496;51.404;7.232;2022-10-19T16:46:24;5.00;;;2.87;;
2972;SDS011;1496;51.404;7.232;2022-10-19T16:48:50;5.53;;;1.70;;
2972;SDS011;1496;51.404;7.232;2022-10-19T16:51:24;6.10;;;2.63;;
2972;SDS011;1496;51.404;7.232;2022-10-19T16:54:04;7.93;;;2.60;;
2972;SDS011;1496;51.404;7.232;2022-10-19T16:56:31;4.20;;;2.07;;
2972;SDS011;1496;51.404;7.232;2022-10-19T16:58:59;7.03;;;2.83;;
2972;SDS011;1496;51.404;7.232;2022-10-19T17:01:26;3.70;;;2.20;;
2972;SDS011;1496;51.404;7.232;2022-10-19T17:03:53;5.90;;;2.60;;
2972;SDS011;1496;51.404;7.232;2022-10-19T17:06:19;6.87;;;3.77;;
2972;SDS011;1496;51.404;7.232;2022-10-19T17:08:45;6.43;;;3.70;;
2972;SDS011;1496;51.404;7.232;2022-10-19T17:11:19;8.33;;;2.63;;
2972;SDS011;1496;51.404;7.232;2022-10-19T17:13:48;8.93;;;2.60;;
2972;SDS011;1496;51.404;7.232;2022-10-19T17:16:16;6.97;;;3.00;;
2972;SDS011;1496;51.404;7.232;2022-10-19T17:18:42;5.50;;;2.87;;
2972;SDS011;1496;51.404;7.232;2022-10-19T17:21:10;7.20;;;2.87;;
2972;SDS011;1496;51.404;7.232;2022-10-19T17:23:37;8.50;;;3.03;;
2972;SDS011;1496;51.404;7.232;2022-10-19T17:26:04;7.87;;;3.03;;
2972;SDS011;1496;51.404;7.232;2022-10-19T17:28:30;10.70;;;2.80;;
2972;SDS011;1496;51.404;7.232;2022-10-19T17:31:01;11.27;;;2.40;;
2972;SDS011;1496;51.404;7.232;2022-10-19T17:33:31;22.50;;;3.40;;
2972;SDS011;1496;51.404;7.232;2022-10-19T17:38:32;14.83;;;2.90;;
2972;SDS011;1496;51.404;7.232;2022-10-19T17:41:01;17.57;;;3.20;;
2972;SDS011;1496;51.404;7.232;2022-10-19T17:43:32;20.53;;;4.17;;
2972;SDS011;1496;51.404;7.232;2022-10-19T17:46:01;16.00;;;3.57;;
2972;SDS011;1496;51.404;7.232;2022-10-19T17:48:30;15.57;;;3.17;;
2972;SDS011;1496;51.404;7.232;2022-10-19T17:51:00;20.43;;;3.83;;
2972;SDS011;1496;51.404;7.232;2022-10-19T17:53:30;22.17;;;4.67;;
2972;SDS011;1496;51.404;7.232;2022-10-19T17:56:03;15.00;;;3.37;;
2972;SDS011;1496;51.404;7.232;2022-10-19T17:58:31;15.30;;;3.43;;
2972;SDS011;1496;51.404;7.232;2022-10-19T18:00:58;17.43;;;3.20;;
2972;SDS011;1496;51.404;7.232;2022-10-19T18:03:25;15.57;;;3.33;;
2972;SDS011;1496;51.404;7.232;2022-10-19T18:05:56;13.47;;;3.30;;
2972;SDS011;1496;51.404;7.232;2022-10-19T18:08:29;15.10;;;3.37;;
2972;SDS011;1496;51.404;7.232;2022-10-19T18:11:12;19.50;;;3.87;;
2972;SDS011;1496;51.404;7.232;2022-10-19T18:13:44;16.10;;;3.53;;
2972;SDS011;1496;51.404;7.232;2022-10-19T18:16:11;17.37;;;5.10;;